sensor_id;sensor_type;location;lat;lon;timestamp;temperature;humidity
12872;DHT22;6504;53.766;9.626;2023-02-04T00:00:27;4.40;99.90
12872;DHT22;6504;53.766;9.626;2023-02-04T00:02:56;4.40;99.90
12872;DHT22;6504;53.766;9.626;2023-02-04T00:05:25;4.30;99.90
12872;DHT22;6504;53.766;9.626;2023-02-04T00:07:53;4.30;99.90
12872;DHT22;6504;53.766;9.626;2023-02-04T00:10:21;4.30;99.90
12872;DHT22;6504;53.766;9.626;2023-02-04T00:12:49;4.30;99.90
12872;DHT22;6504;53.766;9.626;2023-02-04T00:15:18;4.30;99.90
12872;DHT22;6504;53.766;9.626;2023-02-04T00:17:46;4.30;99.90
12872;DHT22;6504;53.766;9.626;2023-02-04T00:20:14;4.30;99.90
12872;DHT22;6504;53.766;9.626;2023-02-04T00:22:42;4.30;99.90
12872;DHT22;6504;53.766;9.626;2023-02-04T00:25:10;4.30;99.90
12872;DHT22;6504;53.766;9.626;2023-02-04T00:27:39;4.30;99.90
12872;DHT22;6504;53.766;9.626;2023-02-04T00:30:08;4.20;99.90
12872;DHT22;6504;53.766;9.626;2023-02-04T00:32:37;4.20;99.90
12872;DHT22;6504;53.766;9.626;2023-02-04T00:35:06;4.20;99.90
12872;DHT22;6504;53.766;9.626;2023-02-04T00:37:35;4.10;99.90
12872;DHT22;6504;53.766;9.626;2023-02-04T00:40:03;4.10;99.90
12872;DHT22;6504;53.766;9.626;2023-02-04T00:42:31;4.10;99.90
12872;DHT22;6504;53.766;9.626;2023-02-04T00:44:59;4.10;99.90
12872;DHT22;6504;53.766;9.626;2023-02-04T00:47:27;4.10;99.90
12872;DHT22;6504;53.766;9.626;2023-02-04T00:49:56;4.00;99.90
12872;DHT22;6504;53.766;9.626;2023-02-04T00:52:24;4.10;99.90
12872;DHT22;6504;53.766;9.626;2023-02-04T00:54:52;4.10;99.90
12872;DHT22;6504;53.766;9.626;2023-02-04T00:57:20;4.10;99.90
12872;DHT22;6504;53.766;9.626;2023-02-04T00:59:48;4.00;99.90
12872;DHT22;6504;53.766;9.626;2023-02-04T01:02:16;4.00;99.90
12872;DHT22;6504;53.766;9.626;2023-02-04T01:04:44;4.00;99.90
12872;DHT22;6504;53.766;9.626;2023-02-04T01:07:14;4.00;99.90
12872;DHT22;6504;53.766;9.626;2023-02-04T01:09:42;4.00;99.90
12872;DHT22;6504;53.766;9.626;2023-02-04T01:12:10;4.00;99.90
12872;DHT22;6504;53.766;9.626;2023-02-04T01:14:38;4.00;99.90
12872;DHT22;6504;53.766;9.626;2023-02-04T01:17:06;4.00;99.90
12872;DHT22;6504;53.766;9.626;2023-02-04T01:19:34;4.00;99.90
12872;DHT22;6504;53.766;9.626;2023-02-04T01:22:02;3.90;99.90
12872;DHT22;6504;53.766;9.626;2023-02-04T01:24:32;3.90;99.90
12872;DHT22;6504;53.766;9.626;2023-02-04T01:27:00;3.90;99.90
12872;DHT22;6504;53.766;9.626;2023-02-04T01:29:28;3.80;99.90
12872;DHT22;6504;53.766;9.626;2023-02-04T01:31:56;3.80;99.90
12872;DHT22;6504;53.766;9.626;2023-02-04T01:34:24;3.80;99.90
12872;DHT22;6504;53.766;9.626;2023-02-04T01:36:53;3.80;99.90
12872;DHT22;6504;53.766;9.626;2023-02-04T01:39:21;3.80;99.90
12872;DHT22;6504;53.766;9.626;2023-02-04T01:41:50;3.70;99.90
12872;DHT22;6504;53.766;9.626;2023-02-04T01:44:18;3.70;99.90
12872;DHT22;6504;53.766;9.626;2023-02-04T01:46:46;3.70;99.90
12872;DHT22;6504;53.766;9.626;2023-02-04T01:49:14;3.70;99.90
12872;DHT22;6504;53.766;9.626;2023-02-04T01:51:42;3.80;99.90
12872;DHT22;6504;53.766;9.626;2023-02-04T01:54:11;3.80;99.90
12872;DHT22;6504;53.766;9.626;2023-02-04T01:56:44;3.80;99.90
12872;DHT22;6504;53.766;9.626;2023-02-04T01:59:15;3.80;99.90
12872;DHT22;6504;53.766;9.626;2023-02-04T02:01:45;3.80;99.90
12872;DHT22;6504;53.766;9.626;2023-02-04T02:04:15;3.80;99.90
12872;DHT22;6504;53.766;9.626;2023-02-04T02:06:48;3.80;99.90
12872;DHT22;6504;53.766;9.626;2023-02-04T02:09:17;3.80;99.90
12872;DHT22;6504;53.766;9.626;2023-02-04T02:11:46;3.80;99.90
12872;DHT22;6504;53.766;9.626;2023-02-04T02:14:15;3.80;99.90
12872;DHT22;6504;53.766;9.626;2023-02-04T02:16:43;3.80;99.90
12872;DHT22;6504;53.766;9.626;2023-02-04T02:19:15;3.80;99.90
12872;DHT22;6504;53.766;9.626;2023-02-04T02:21:49;3.70;99.90
12872;DHT22;6504;53.766;9.626;2023-02-04T02:24:28;3.70;99.90
12872;DHT22;6504;53.766;9.626;2023-02-04T02:26:58;3.70;99.90
12872;DHT22;6504;53.766;9.626;2023-02-04T02:29:27;3.60;99.90
12872;DHT22;6504;53.766;9.626;2023-02-04T02:31:56;3.60;99.90
12872;DHT22;6504;53.766;9.626;2023-02-04T02:34:25;3.60;99.90
12872;DHT22;6504;53.766;9.626;2023-02-04T02:36:54;3.60;99.90
12872;DHT22;6504;53.766;9.626;2023-02-04T02:39:22;3.60;99.90
12872;DHT22;6504;53.766;9.626;2023-02-04T02:41:52;3.50;99.90
12872;DHT22;6504;53.766;9.626;2023-02-04T02:44:24;3.50;99.90
12872;DHT22;6504;53.766;9.626;2023-02-04T02:46:53;3.50;99.90
12872;DHT22;6504;53.766;9.626;2023-02-04T02:49:21;3.50;99.90
12872;DHT22;6504;53.766;9.626;2023-02-04T02:51:49;3.50;99.90
12872;DHT22;6504;53.766;9.626;2023-02-04T02:54:21;3.50;99.90
12872;DHT22;6504;53.766;9.626;2023-02-04T02:56:51;3.40;99.90
12872;DHT22;6504;53.766;9.626;2023-02-04T02:59:19;3.40;99.90
12872;DHT22;6504;53.766;9.626;2023-02-04T03:01:50;3.40;99.90
12872;DHT22;6504;53.766;9.626;2023-02-04T03:04:19;3.40;99.90
12872;DHT22;6504;53.766;9.626;2023-02-04T03:06:49;3.40;99.90
12872;DHT22;6504;53.766;9.626;2023-02-04T03:09:17;3.30;99.90
12872;DHT22;6504;53.766;9.626;2023-02-04T03:11:46;3.30;99.90
12872;DHT22;6504;53.766;9.626;2023-02-04T03:14:16;3.30;99.90
12872;DHT22;6504;53.766;9.626;2023-02-04T03:16:45;3.30;99.90
12872;DHT22;6504;53.766;9.626;2023-02-04T03:19:15;3.30;99.90
12872;DHT22;6504;53.766;9.626;2023-02-04T03:21:43;3.20;99.90
12872;DHT22;6504;53.766;9.626;2023-02-04T03:24:12;3.20;99.90
12872;DHT22;6504;53.766;9.626;2023-02-04T03:26:40;3.20;99.90
12872;DHT22;6504;53.766;9.626;2023-02-04T03:29:09;3.10;99.90
12872;DHT22;6504;53.766;9.626;2023-02-04T03:31:38;3.10;99.90
12872;DHT22;6504;53.766;9.626;2023-02-04T03:34:07;3.10;99.90
12872;DHT22;6504;53.766;9.626;2023-02-04T03:36:35;3.00;99.90
12872;DHT22;6504;53.766;9.626;2023-02-04T03:39:03;3.00;99.90
12872;DHT22;6504;53.766;9.626;2023-02-04T03:41:31;3.00;99.90
12872;DHT22;6504;53.766;9.626;2023-02-04T03:43:59;3.00;99.90
12872;DHT22;6504;53.766;9.626;2023-02-04T03:46:27;3.00;99.90
12872;DHT22;6504;53.766;9.626;2023-02-04T03:48:57;2.90;99.90
12872;DHT22;6504;53.766;9.626;2023-02-04T03:51:25;2.90;99.90
12872;DHT22;6504;53.766;9.626;2023-02-04T03:53:53;2.90;99.90
12872;DHT22;6504;53.766;9.626;2023-02-04T03:56:21;2.90;99.90
12872;DHT22;6504;53.766;9.626;2023-02-04T03:58:49;2.90;99.90
12872;DHT22;6504;53.766;9.626;2023-02-04T04:01:17;2.90;99.90
12872;DHT22;6504;53.766;9.626;2023-02-04T04:03:45;2.90;99.90
12872;DHT22;6504;53.766;9.626;2023-02-04T04:06:14;2.90;99.90
12872;DHT22;6504;53.766;9.626;2023-02-04T04:08:42;2.80;99.90
12872;DHT22;6504;53.766;9.626;2023-02-04T04:11:11;2.80;99.90
12872;DHT22;6504;53.766;9.626;2023-02-04T04:13:39;2.80;99.90
12872;DHT22;6504;53.766;9.626;2023-02-04T04:16:07;2.70;99.90
12872;DHT22;6504;53.766;9.626;2023-02-04T04:18:35;2.70;99.90
12872;DHT22;6504;53.766;9.626;2023-02-04T04:21:04;2.70;99.90
12872;DHT22;6504;53.766;9.626;2023-02-04T04:23:33;2.70;99.90
12872;DHT22;6504;53.766;9.626;2023-02-04T04:26:01;2.70;99.90
12872;DHT22;6504;53.766;9.626;2023-02-04T04:28:29;2.70;99.90
12872;DHT22;6504;53.766;9.626;2023-02-04T04:30:57;2.60;99.90
12872;DHT22;6504;53.766;9.626;2023-02-04T04:33:25;2.60;99.90
12872;DHT22;6504;53.766;9.626;2023-02-04T04:35:53;2.50;99.90
12872;DHT22;6504;53.766;9.626;2023-02-04T04:38:21;2.50;99.90
12872;DHT22;6504;53.766;9.626;2023-02-04T04:40:51;2.50;99.90
12872;DHT22;6504;53.766;9.626;2023-02-04T04:43:19;2.50;99.90
12872;DHT22;6504;53.766;9.626;2023-02-04T04:45:47;2.50;99.90
12872;DHT22;6504;53.766;9.626;2023-02-04T04:48:15;2.50;99.90
12872;DHT22;6504;53.766;9.626;2023-02-04T04:50:43;2.50;99.90
12872;DHT22;6504;53.766;9.626;2023-02-04T04:53:11;2.40;99.90
12872;DHT22;6504;53.766;9.626;2023-02-04T04:55:39;2.40;99.90
12872;DHT22;6504;53.766;9.626;2023-02-04T04:58:09;2.40;99.90
12872;DHT22;6504;53.766;9.626;2023-02-04T05:00:37;2.40;99.90
12872;DHT22;6504;53.766;9.626;2023-02-04T05:03:05;2.40;99.90
12872;DHT22;6504;53.766;9.626;2023-02-04T05:05:33;2.40;99.90
12872;DHT22;6504;53.766;9.626;2023-02-04T05:08:05;2.40;99.90
12872;DHT22;6504;53.766;9.626;2023-02-04T05:10:36;2.40;99.90
12872;DHT22;6504;53.766;9.626;2023-02-04T05:13:04;2.40;99.90
12872;DHT22;6504;53.766;9.626;2023-02-04T05:15:34;2.40;99.90
12872;DHT22;6504;53.766;9.626;2023-02-04T05:18:02;2.40;99.90
12872;DHT22;6504;53.766;9.626;2023-02-04T05:20:30;2.40;99.90
12872;DHT22;6504;53.766;9.626;2023-02-04T05:22:59;2.40;99.90
12872;DHT22;6504;53.766;9.626;2023-02-04T05:25:29;2.30;99.90
12872;DHT22;6504;53.766;9.626;2023-02-04T05:27:57;2.40;99.90
12872;DHT22;6504;53.766;9.626;2023-02-04T05:30:25;2.30;99.90
12872;DHT22;6504;53.766;9.626;2023-02-04T05:32:55;2.30;99.90
12872;DHT22;6504;53.766;9.626;2023-02-04T05:35:23;2.30;99.90
12872;DHT22;6504;53.766;9.626;2023-02-04T05:37:51;2.30;99.90
12872;DHT22;6504;53.766;9.626;2023-02-04T05:40:20;2.40;99.90
12872;DHT22;6504;53.766;9.626;2023-02-04T05:42:48;2.40;99.90
12872;DHT22;6504;53.766;9.626;2023-02-04T05:45:16;2.40;99.90
12872;DHT22;6504;53.766;9.626;2023-02-04T05:47:45;2.40;99.90
12872;DHT22;6504;53.766;9.626;2023-02-04T05:50:15;2.40;99.90
12872;DHT22;6504;53.766;9.626;2023-02-04T05:52:43;2.40;99.90
12872;DHT22;6504;53.766;9.626;2023-02-04T05:55:11;2.40;99.90
12872;DHT22;6504;53.766;9.626;2023-02-04T05:57:39;2.40;99.90
12872;DHT22;6504;53.766;9.626;2023-02-04T06:00:09;2.40;99.90
12872;DHT22;6504;53.766;9.626;2023-02-04T06:02:38;2.40;99.90
12872;DHT22;6504;53.766;9.626;2023-02-04T06:05:06;2.40;99.90
12872;DHT22;6504;53.766;9.626;2023-02-04T06:07:36;2.40;99.90
12872;DHT22;6504;53.766;9.626;2023-02-04T06:10:04;2.40;99.90
12872;DHT22;6504;53.766;9.626;2023-02-04T06:12:32;2.40;99.90
12872;DHT22;6504;53.766;9.626;2023-02-04T06:15:00;2.40;99.90
12872;DHT22;6504;53.766;9.626;2023-02-04T06:17:28;2.40;99.90
12872;DHT22;6504;53.766;9.626;2023-02-04T06:19:56;2.40;99.90
12872;DHT22;6504;53.766;9.626;2023-02-04T06:22:24;2.40;99.90
12872;DHT22;6504;53.766;9.626;2023-02-04T06:24:54;2.40;99.90
12872;DHT22;6504;53.766;9.626;2023-02-04T06:27:22;2.40;99.90
12872;DHT22;6504;53.766;9.626;2023-02-04T06:29:50;2.40;99.90
12872;DHT22;6504;53.766;9.626;2023-02-04T06:32:18;2.40;99.90
12872;DHT22;6504;53.766;9.626;2023-02-04T06:34:47;2.40;99.90
12872;DHT22;6504;53.766;9.626;2023-02-04T06:37:15;2.40;99.90
12872;DHT22;6504;53.766;9.626;2023-02-04T06:39:43;2.40;99.90
12872;DHT22;6504;53.766;9.626;2023-02-04T06:42:13;2.40;99.90
12872;DHT22;6504;53.766;9.626;2023-02-04T06:44:41;2.40;99.90
12872;DHT22;6504;53.766;9.626;2023-02-04T06:47:09;2.40;99.90
12872;DHT22;6504;53.766;9.626;2023-02-04T06:49:37;2.30;99.90
12872;DHT22;6504;53.766;9.626;2023-02-04T06:52:05;2.30;99.90
12872;DHT22;6504;53.766;9.626;2023-02-04T06:54:33;2.30;99.90
12872;DHT22;6504;53.766;9.626;2023-02-04T06:57:01;2.30;99.90
12872;DHT22;6504;53.766;9.626;2023-02-04T06:59:36;2.30;99.90
12872;DHT22;6504;53.766;9.626;2023-02-04T07:02:06;2.30;99.90
12872;DHT22;6504;53.766;9.626;2023-02-04T07:04:34;2.30;99.90
12872;DHT22;6504;53.766;9.626;2023-02-04T07:07:02;2.30;99.90
12872;DHT22;6504;53.766;9.626;2023-02-04T07:09:30;2.30;99.90
12872;DHT22;6504;53.766;9.626;2023-02-04T07:11:58;2.30;99.90
12872;DHT22;6504;53.766;9.626;2023-02-04T07:14:26;2.30;99.90
12872;DHT22;6504;53.766;9.626;2023-02-04T07:16:56;2.30;99.90
12872;DHT22;6504;53.766;9.626;2023-02-04T07:19:24;2.30;99.90
12872;DHT22;6504;53.766;9.626;2023-02-04T07:21:52;2.30;99.90
12872;DHT22;6504;53.766;9.626;2023-02-04T07:24:23;2.20;99.90
12872;DHT22;6504;53.766;9.626;2023-02-04T07:26:51;2.20;99.90
12872;DHT22;6504;53.766;9.626;2023-02-04T07:29:19;2.20;99.90
12872;DHT22;6504;53.766;9.626;2023-02-04T07:31:51;2.20;99.90
12872;DHT22;6504;53.766;9.626;2023-02-04T07:34:21;2.20;99.90
12872;DHT22;6504;53.766;9.626;2023-02-04T07:36:49;2.10;99.90
12872;DHT22;6504;53.766;9.626;2023-02-04T07:39:17;2.10;99.90
12872;DHT22;6504;53.766;9.626;2023-02-04T07:41:45;2.10;99.90
12872;DHT22;6504;53.766;9.626;2023-02-04T07:44:13;2.10;99.90
12872;DHT22;6504;53.766;9.626;2023-02-04T07:46:42;2.10;99.90
12872;DHT22;6504;53.766;9.626;2023-02-04T07:49:10;2.10;99.90
12872;DHT22;6504;53.766;9.626;2023-02-04T07:51:39;2.10;99.90
12872;DHT22;6504;53.766;9.626;2023-02-04T07:54:08;2.10;99.90
12872;DHT22;6504;53.766;9.626;2023-02-04T07:56:36;2.10;99.90
12872;DHT22;6504;53.766;9.626;2023-02-04T07:59:04;2.10;99.90
12872;DHT22;6504;53.766;9.626;2023-02-04T08:01:32;2.10;99.90
12872;DHT22;6504;53.766;9.626;2023-02-04T08:04:00;2.10;99.90
12872;DHT22;6504;53.766;9.626;2023-02-04T08:06:28;2.10;99.90
12872;DHT22;6504;53.766;9.626;2023-02-04T08:08:57;2.10;99.90
12872;DHT22;6504;53.766;9.626;2023-02-04T08:11:25;2.10;99.90
12872;DHT22;6504;53.766;9.626;2023-02-04T08:13:53;2.10;99.90
12872;DHT22;6504;53.766;9.626;2023-02-04T08:16:21;2.10;99.90
12872;DHT22;6504;53.766;9.626;2023-02-04T08:18:49;2.10;99.90
12872;DHT22;6504;53.766;9.626;2023-02-04T08:21:17;2.00;99.90
12872;DHT22;6504;53.766;9.626;2023-02-04T08:23:46;2.00;99.90
12872;DHT22;6504;53.766;9.626;2023-02-04T08:26:15;2.00;99.90
12872;DHT22;6504;53.766;9.626;2023-02-04T08:28:43;1.90;99.90
12872;DHT22;6504;53.766;9.626;2023-02-04T08:31:11;1.80;99.90
12872;DHT22;6504;53.766;9.626;2023-02-04T08:33:39;1.80;99.90
12872;DHT22;6504;53.766;9.626;2023-02-04T08:36:08;1.80;99.90
12872;DHT22;6504;53.766;9.626;2023-02-04T08:38:36;1.80;99.90
12872;DHT22;6504;53.766;9.626;2023-02-04T08:41:05;1.90;99.90
12872;DHT22;6504;53.766;9.626;2023-02-04T08:43:34;1.90;99.90
12872;DHT22;6504;53.766;9.626;2023-02-04T08:46:03;1.90;99.90
12872;DHT22;6504;53.766;9.626;2023-02-04T08:48:31;1.90;99.90
12872;DHT22;6504;53.766;9.626;2023-02-04T08:50:59;1.90;99.90
12872;DHT22;6504;53.766;9.626;2023-02-04T08:53:27;1.90;99.90
12872;DHT22;6504;53.766;9.626;2023-02-04T08:55:55;1.90;99.90
12872;DHT22;6504;53.766;9.626;2023-02-04T08:58:23;1.90;99.90
12872;DHT22;6504;53.766;9.626;2023-02-04T09:00:53;1.90;99.90
12872;DHT22;6504;53.766;9.626;2023-02-04T09:03:21;1.90;99.90
12872;DHT22;6504;53.766;9.626;2023-02-04T09:05:49;1.90;99.90
12872;DHT22;6504;53.766;9.626;2023-02-04T09:08:17;1.90;99.90
12872;DHT22;6504;53.766;9.626;2023-02-04T09:10:45;1.90;99.90
12872;DHT22;6504;53.766;9.626;2023-02-04T09:13:13;2.00;99.90
12872;DHT22;6504;53.766;9.626;2023-02-04T09:15:41;2.00;99.90
12872;DHT22;6504;53.766;9.626;2023-02-04T09:18:10;2.00;99.90
12872;DHT22;6504;53.766;9.626;2023-02-04T09:20:42;2.00;99.90
12872;DHT22;6504;53.766;9.626;2023-02-04T09:23:10;2.10;99.90
12872;DHT22;6504;53.766;9.626;2023-02-04T09:25:39;2.10;99.90
12872;DHT22;6504;53.766;9.626;2023-02-04T09:28:08;2.10;99.90
12872;DHT22;6504;53.766;9.626;2023-02-04T09:30:37;2.10;99.90
12872;DHT22;6504;53.766;9.626;2023-02-04T09:33:06;2.10;99.90
12872;DHT22;6504;53.766;9.626;2023-02-04T09:35:35;2.20;99.90
12872;DHT22;6504;53.766;9.626;2023-02-04T09:38:04;2.20;99.90
12872;DHT22;6504;53.766;9.626;2023-02-04T09:40:33;2.20;99.90
12872;DHT22;6504;53.766;9.626;2023-02-04T09:43:04;2.20;99.90
12872;DHT22;6504;53.766;9.626;2023-02-04T09:45:34;2.30;99.90
12872;DHT22;6504;53.766;9.626;2023-02-04T09:48:04;2.30;99.90
12872;DHT22;6504;53.766;9.626;2023-02-04T09:50:37;2.30;99.90
12872;DHT22;6504;53.766;9.626;2023-02-04T09:53:06;2.30;99.90
12872;DHT22;6504;53.766;9.626;2023-02-04T09:55:37;2.40;99.90
12872;DHT22;6504;53.766;9.626;2023-02-04T09:58:11;2.40;99.90
12872;DHT22;6504;53.766;9.626;2023-02-04T10:00:42;2.40;99.90
12872;DHT22;6504;53.766;9.626;2023-02-04T10:03:14;2.50;99.90
12872;DHT22;6504;53.766;9.626;2023-02-04T10:05:45;2.50;99.90
12872;DHT22;6504;53.766;9.626;2023-02-04T10:08:16;2.60;99.90
12872;DHT22;6504;53.766;9.626;2023-02-04T10:10:46;2.60;99.90
12872;DHT22;6504;53.766;9.626;2023-02-04T10:13:18;2.60;99.90
12872;DHT22;6504;53.766;9.626;2023-02-04T10:15:48;2.70;99.90
12872;DHT22;6504;53.766;9.626;2023-02-04T10:18:20;2.70;99.90
12872;DHT22;6504;53.766;9.626;2023-02-04T10:20:55;2.70;99.90
12872;DHT22;6504;53.766;9.626;2023-02-04T10:23:25;2.70;99.90
12872;DHT22;6504;53.766;9.626;2023-02-04T10:25:53;2.80;99.90
12872;DHT22;6504;53.766;9.626;2023-02-04T10:28:32;2.80;99.90
12872;DHT22;6504;53.766;9.626;2023-02-04T10:31:00;2.80;99.90
12872;DHT22;6504;53.766;9.626;2023-02-04T10:33:29;2.90;99.90
12872;DHT22;6504;53.766;9.626;2023-02-04T10:36:00;2.90;99.90
12872;DHT22;6504;53.766;9.626;2023-02-04T10:38:30;3.00;99.90
12872;DHT22;6504;53.766;9.626;2023-02-04T10:41:01;3.00;99.90
12872;DHT22;6504;53.766;9.626;2023-02-04T10:43:29;3.10;99.90
12872;DHT22;6504;53.766;9.626;2023-02-04T10:46:00;3.20;99.90
12872;DHT22;6504;53.766;9.626;2023-02-04T10:48:29;3.20;99.90
12872;DHT22;6504;53.766;9.626;2023-02-04T10:50:57;3.30;99.90
12872;DHT22;6504;53.766;9.626;2023-02-04T10:53:27;3.30;99.90
12872;DHT22;6504;53.766;9.626;2023-02-04T10:56:15;3.40;99.90
12872;DHT22;6504;53.766;9.626;2023-02-04T10:58:44;3.40;99.90
12872;DHT22;6504;53.766;9.626;2023-02-04T11:01:14;3.50;99.90
12872;DHT22;6504;53.766;9.626;2023-02-04T11:03:43;3.50;99.90
12872;DHT22;6504;53.766;9.626;2023-02-04T11:06:18;3.60;99.90
12872;DHT22;6504;53.766;9.626;2023-02-04T11:08:48;3.60;99.90
12872;DHT22;6504;53.766;9.626;2023-02-04T11:11:21;3.60;99.90
12872;DHT22;6504;53.766;9.626;2023-02-04T11:13:58;3.70;99.90
12872;DHT22;6504;53.766;9.626;2023-02-04T11:16:29;3.70;99.90
12872;DHT22;6504;53.766;9.626;2023-02-04T11:19:00;3.70;99.90
12872;DHT22;6504;53.766;9.626;2023-02-04T11:21:42;3.80;99.90
12872;DHT22;6504;53.766;9.626;2023-02-04T11:24:23;3.80;99.90
12872;DHT22;6504;53.766;9.626;2023-02-04T11:26:52;3.80;99.90
12872;DHT22;6504;53.766;9.626;2023-02-04T11:29:33;3.80;99.90
12872;DHT22;6504;53.766;9.626;2023-02-04T11:32:06;3.90;99.90
12872;DHT22;6504;53.766;9.626;2023-02-04T11:34:48;3.90;99.90
12872;DHT22;6504;53.766;9.626;2023-02-04T11:37:34;3.90;99.90
12872;DHT22;6504;53.766;9.626;2023-02-04T11:40:19;3.90;99.90
12872;DHT22;6504;53.766;9.626;2023-02-04T11:42:49;3.90;99.90
12872;DHT22;6504;53.766;9.626;2023-02-04T11:45:25;3.90;99.90
12872;DHT22;6504;53.766;9.626;2023-02-04T11:47:56;3.90;99.90
12872;DHT22;6504;53.766;9.626;2023-02-04T11:50:27;3.90;99.90
12872;DHT22;6504;53.766;9.626;2023-02-04T11:52:57;3.90;99.90
12872;DHT22;6504;53.766;9.626;2023-02-04T11:55:29;4.00;99.90
12872;DHT22;6504;53.766;9.626;2023-02-04T11:57:58;4.00;99.90
12872;DHT22;6504;53.766;9.626;2023-02-04T12:00:29;4.00;99.90
12872;DHT22;6504;53.766;9.626;2023-02-04T12:03:00;4.10;99.90
12872;DHT22;6504;53.766;9.626;2023-02-04T12:05:38;4.10;99.90
12872;DHT22;6504;53.766;9.626;2023-02-04T12:08:11;4.10;99.90
12872;DHT22;6504;53.766;9.626;2023-02-04T12:10:49;4.10;99.90
12872;DHT22;6504;53.766;9.626;2023-02-04T12:13:22;4.10;99.90
12872;DHT22;6504;53.766;9.626;2023-02-04T12:15:57;4.20;99.90
12872;DHT22;6504;53.766;9.626;2023-02-04T12:18:28;4.20;99.90
12872;DHT22;6504;53.766;9.626;2023-02-04T12:20:57;4.30;99.90
12872;DHT22;6504;53.766;9.626;2023-02-04T12:23:26;4.30;99.90
12872;DHT22;6504;53.766;9.626;2023-02-04T12:25:56;4.30;99.90
12872;DHT22;6504;53.766;9.626;2023-02-04T12:28:25;4.30;99.90
12872;DHT22;6504;53.766;9.626;2023-02-04T12:30:54;4.30;99.90
12872;DHT22;6504;53.766;9.626;2023-02-04T12:33:25;4.30;99.90
12872;DHT22;6504;53.766;9.626;2023-02-04T12:35:53;4.30;99.90
12872;DHT22;6504;53.766;9.626;2023-02-04T12:38:21;4.30;99.90
12872;DHT22;6504;53.766;9.626;2023-02-04T12:40:49;4.30;99.90
12872;DHT22;6504;53.766;9.626;2023-02-04T12:43:20;4.40;99.90
12872;DHT22;6504;53.766;9.626;2023-02-04T12:45:48;4.40;99.90
12872;DHT22;6504;53.766;9.626;2023-02-04T12:48:16;4.40;99.90
12872;DHT22;6504;53.766;9.626;2023-02-04T12:50:44;4.40;99.90
12872;DHT22;6504;53.766;9.626;2023-02-04T12:53:13;4.40;99.90
12872;DHT22;6504;53.766;9.626;2023-02-04T12:55:41;4.40;99.90
12872;DHT22;6504;53.766;9.626;2023-02-04T12:58:09;4.40;99.90
12872;DHT22;6504;53.766;9.626;2023-02-04T13:00:38;4.40;99.90
12872;DHT22;6504;53.766;9.626;2023-02-04T13:03:08;4.40;99.90
12872;DHT22;6504;53.766;9.626;2023-02-04T13:05:36;4.40;99.90
12872;DHT22;6504;53.766;9.626;2023-02-04T13:08:04;4.40;99.90
12872;DHT22;6504;53.766;9.626;2023-02-04T13:10:32;4.40;99.90
12872;DHT22;6504;53.766;9.626;2023-02-04T13:13:00;4.30;99.90
12872;DHT22;6504;53.766;9.626;2023-02-04T13:15:30;4.30;99.90
12872;DHT22;6504;53.766;9.626;2023-02-04T13:18:00;4.40;99.90
12872;DHT22;6504;53.766;9.626;2023-02-04T13:20:28;4.40;99.90
12872;DHT22;6504;53.766;9.626;2023-02-04T13:22:56;4.40;99.90
12872;DHT22;6504;53.766;9.626;2023-02-04T13:25:24;4.30;99.90
12872;DHT22;6504;53.766;9.626;2023-02-04T13:27:52;4.40;99.90
12872;DHT22;6504;53.766;9.626;2023-02-04T13:30:20;4.40;99.90
12872;DHT22;6504;53.766;9.626;2023-02-04T13:32:48;4.40;99.90
12872;DHT22;6504;53.766;9.626;2023-02-04T13:35:18;4.30;99.90
12872;DHT22;6504;53.766;9.626;2023-02-04T13:37:46;4.40;99.90
12872;DHT22;6504;53.766;9.626;2023-02-04T13:40:14;4.40;99.90
12872;DHT22;6504;53.766;9.626;2023-02-04T13:42:42;4.40;99.90
12872;DHT22;6504;53.766;9.626;2023-02-04T13:45:11;4.40;99.90
12872;DHT22;6504;53.766;9.626;2023-02-04T13:47:41;4.40;99.90
12872;DHT22;6504;53.766;9.626;2023-02-04T13:50:09;4.40;99.90
12872;DHT22;6504;53.766;9.626;2023-02-04T13:52:39;4.40;99.90
12872;DHT22;6504;53.766;9.626;2023-02-04T13:55:07;4.40;99.90
12872;DHT22;6504;53.766;9.626;2023-02-04T13:57:36;4.50;99.90
12872;DHT22;6504;53.766;9.626;2023-02-04T14:00:05;4.50;99.90
12872;DHT22;6504;53.766;9.626;2023-02-04T14:02:33;4.50;99.90
12872;DHT22;6504;53.766;9.626;2023-02-04T14:05:02;4.50;99.90
12872;DHT22;6504;53.766;9.626;2023-02-04T14:07:30;4.50;99.90
12872;DHT22;6504;53.766;9.626;2023-02-04T14:10:00;4.50;99.90
12872;DHT22;6504;53.766;9.626;2023-02-04T14:12:28;4.50;99.90
12872;DHT22;6504;53.766;9.626;2023-02-04T14:14:56;4.50;99.90
12872;DHT22;6504;53.766;9.626;2023-02-04T14:17:24;4.50;99.90
12872;DHT22;6504;53.766;9.626;2023-02-04T14:19:53;4.50;99.90
12872;DHT22;6504;53.766;9.626;2023-02-04T14:22:21;4.50;99.90
12872;DHT22;6504;53.766;9.626;2023-02-04T14:24:49;4.50;99.90
12872;DHT22;6504;53.766;9.626;2023-02-04T14:27:18;4.40;99.90
12872;DHT22;6504;53.766;9.626;2023-02-04T14:29:46;4.40;99.90
12872;DHT22;6504;53.766;9.626;2023-02-04T14:32:14;4.40;99.90
12872;DHT22;6504;53.766;9.626;2023-02-04T14:34:42;4.40;99.90
12872;DHT22;6504;53.766;9.626;2023-02-04T14:37:10;4.30;99.90
12872;DHT22;6504;53.766;9.626;2023-02-04T14:39:38;4.30;99.90
12872;DHT22;6504;53.766;9.626;2023-02-04T14:42:06;4.30;99.90
12872;DHT22;6504;53.766;9.626;2023-02-04T14:44:36;4.30;99.90
12872;DHT22;6504;53.766;9.626;2023-02-04T14:47:04;4.20;99.90
12872;DHT22;6504;53.766;9.626;2023-02-04T14:49:32;4.20;99.90
12872;DHT22;6504;53.766;9.626;2023-02-04T14:52:02;4.20;99.90
12872;DHT22;6504;53.766;9.626;2023-02-04T14:54:31;4.20;99.90
12872;DHT22;6504;53.766;9.626;2023-02-04T14:56:59;4.20;99.90
12872;DHT22;6504;53.766;9.626;2023-02-04T14:59:27;4.10;99.90
12872;DHT22;6504;53.766;9.626;2023-02-04T15:01:56;4.10;99.90
12872;DHT22;6504;53.766;9.626;2023-02-04T15:04:24;4.10;99.90
12872;DHT22;6504;53.766;9.626;2023-02-04T15:06:52;4.00;99.90
12872;DHT22;6504;53.766;9.626;2023-02-04T15:09:21;4.00;99.90
12872;DHT22;6504;53.766;9.626;2023-02-04T15:11:49;4.00;99.90
12872;DHT22;6504;53.766;9.626;2023-02-04T15:14:17;4.00;99.90
12872;DHT22;6504;53.766;9.626;2023-02-04T15:16:46;4.00;99.90
12872;DHT22;6504;53.766;9.626;2023-02-04T15:19:17;3.90;99.90
12872;DHT22;6504;53.766;9.626;2023-02-04T15:21:45;3.90;99.90
12872;DHT22;6504;53.766;9.626;2023-02-04T15:24:13;3.90;99.90
12872;DHT22;6504;53.766;9.626;2023-02-04T15:26:41;3.90;99.90
12872;DHT22;6504;53.766;9.626;2023-02-04T15:29:09;3.90;99.90
12872;DHT22;6504;53.766;9.626;2023-02-04T15:31:37;3.80;99.90
12872;DHT22;6504;53.766;9.626;2023-02-04T15:34:05;3.80;99.90
12872;DHT22;6504;53.766;9.626;2023-02-04T15:36:34;3.80;99.90
12872;DHT22;6504;53.766;9.626;2023-02-04T15:39:03;3.80;99.90
12872;DHT22;6504;53.766;9.626;2023-02-04T15:41:31;3.70;99.90
12872;DHT22;6504;53.766;9.626;2023-02-04T15:43:59;3.70;99.90
12872;DHT22;6504;53.766;9.626;2023-02-04T15:46:27;3.70;99.90
12872;DHT22;6504;53.766;9.626;2023-02-04T15:48:55;3.70;99.90
12872;DHT22;6504;53.766;9.626;2023-02-04T15:51:23;3.70;99.90
12872;DHT22;6504;53.766;9.626;2023-02-04T15:53:53;3.70;99.90
12872;DHT22;6504;53.766;9.626;2023-02-04T15:56:21;3.70;99.90
12872;DHT22;6504;53.766;9.626;2023-02-04T15:58:49;3.60;99.90
12872;DHT22;6504;53.766;9.626;2023-02-04T16:01:17;3.60;99.90
12872;DHT22;6504;53.766;9.626;2023-02-04T16:03:45;3.60;99.90
12872;DHT22;6504;53.766;9.626;2023-02-04T16:06:15;3.60;99.90
12872;DHT22;6504;53.766;9.626;2023-02-04T16:08:43;3.60;99.90
12872;DHT22;6504;53.766;9.626;2023-02-04T16:11:13;3.60;99.90
12872;DHT22;6504;53.766;9.626;2023-02-04T16:13:41;3.60;99.90